createdAt,value
2022-12-04T00:00:14.465Z,14.70
2022-12-04T00:02:41.904Z,14.70
2022-12-04T00:05:09.833Z,14.70
2022-12-04T00:07:36.807Z,14.70
2022-12-04T00:10:04.541Z,14.80
2022-12-04T00:12:31.268Z,14.80
2022-12-04T00:15:24.628Z,14.80
2022-12-04T00:17:50.394Z,14.80
2022-12-04T00:20:17.160Z,14.80
2022-12-04T00:22:43.824Z,14.80
2022-12-04T00:25:10.554Z,14.80
2022-12-04T00:27:39.881Z,14.80
2022-12-04T00:30:07.299Z,14.80
2022-12-04T00:32:34.035Z,14.80
2022-12-04T00:35:00.706Z,14.80
2022-12-04T00:37:27.447Z,14.70
2022-12-04T00:39:54.603Z,14.70
2022-12-04T00:42:21.513Z,14.70
2022-12-04T00:44:48.324Z,14.70
2022-12-04T00:47:15.009Z,14.70
2022-12-04T00:49:41.766Z,14.70
2022-12-04T00:52:08.530Z,14.70
2022-12-04T00:54:35.233Z,14.80
2022-12-04T00:57:01.888Z,14.80
2022-12-04T00:59:28.613Z,14.80
2022-12-04T01:01:55.266Z,14.80
2022-12-04T01:04:22.006Z,14.80
2022-12-04T01:06:48.834Z,14.80
2022-12-04T01:09:15.666Z,14.80
2022-12-04T01:11:42.331Z,14.80
2022-12-04T01:14:09.158Z,14.90
2022-12-04T01:16:38.093Z,14.90
2022-12-04T01:19:07.850Z,14.80
2022-12-04T01:21:35.908Z,14.80
2022-12-04T01:24:02.721Z,14.80
2022-12-04T01:26:31.041Z,14.90
2022-12-04T01:28:57.870Z,14.90
2022-12-04T01:31:25.326Z,14.90
2022-12-04T01:33:52.517Z,14.90
2022-12-04T01:36:23.440Z,14.80
2022-12-04T01:38:50.731Z,14.80
2022-12-04T01:41:24.291Z,14.80
2022-12-04T01:44:14.483Z,14.80
2022-12-04T01:46:43.064Z,14.70
2022-12-04T01:49:17.486Z,14.70
2022-12-04T01:51:52.826Z,14.70
2022-12-04T01:54:32.318Z,14.70
2022-12-04T01:57:12.900Z,14.70
2022-12-04T01:59:51.999Z,14.70
2022-12-04T02:02:25.308Z,14.60
2022-12-04T02:04:52.523Z,14.60
2022-12-04T02:07:19.183Z,14.60
2022-12-04T02:09:53.782Z,14.60
2022-12-04T02:12:36.670Z,14.60
2022-12-04T02:15:08.952Z,14.70
2022-12-04T02:17:57.317Z,14.70
2022-12-04T02:20:36.684Z,14.70
2022-12-04T02:23:18.230Z,14.70
2022-12-04T02:26:18.859Z,14.70
2022-12-04T02:28:55.981Z,14.80
2022-12-04T02:31:38.711Z,14.80
2022-12-04T02:34:16.837Z,14.80
2022-12-04T02:36:51.428Z,14.80
2022-12-04T02:39:31.011Z,14.80
2022-12-04T02:42:04.677Z,14.90
2022-12-04T02:44:41.899Z,14.90
2022-12-04T02:47:14.571Z,14.90
2022-12-04T02:49:47.176Z,14.90
2022-12-04T02:52:20.983Z,14.90
2022-12-04T02:54:53.513Z,14.80
2022-12-04T02:57:26.993Z,14.90
2022-12-04T02:59:57.118Z,14.90
2022-12-04T03:02:37.188Z,14.90
2022-12-04T03:05:10.187Z,14.90
2022-12-04T03:07:44.253Z,14.90
2022-12-04T03:10:17.425Z,14.90
2022-12-04T03:12:56.804Z,14.90
2022-12-04T03:15:28.109Z,14.90
2022-12-04T03:18:04.867Z,14.80
2022-12-04T03:20:34.799Z,14.80
2022-12-04T03:23:11.392Z,14.80
2022-12-04T03:25:52.779Z,14.80
2022-12-04T03:28:38.165Z,14.80
2022-12-04T03:31:08.010Z,14.80
2022-12-04T03:33:41.233Z,14.90
2022-12-04T03:36:16.535Z,14.90
2022-12-04T03:39:07.002Z,14.90
2022-12-04T03:41:54.583Z,14.90
2022-12-04T03:44:50.938Z,14.90
2022-12-04T03:47:24.732Z,14.90
2022-12-04T03:49:55.769Z,14.90
2022-12-04T03:52:40.511Z,14.80
2022-12-04T03:55:29.527Z,14.80
2022-12-04T03:58:02.220Z,14.80
2022-12-04T04:00:31.186Z,14.80
2022-12-04T04:03:06.749Z,14.80
2022-12-04T04:05:34.939Z,14.80
2022-12-04T04:08:23.589Z,14.80
2022-12-04T04:10:53.482Z,14.80
2022-12-04T04:13:42.886Z,14.70
2022-12-04T04:16:32.885Z,14.70
2022-12-04T04:19:20.531Z,14.70
2022-12-04T04:22:09.586Z,14.70
2022-12-04T04:24:46.491Z,14.80
2022-12-04T04:27:14.330Z,14.80
2022-12-04T04:29:47.982Z,14.80
2022-12-04T04:32:30.904Z,14.70
2022-12-04T04:35:17.083Z,14.70
2022-12-04T04:38:08.912Z,14.70
2022-12-04T04:40:49.856Z,14.70
2022-12-04T04:43:36.997Z,14.80
2022-12-04T04:46:22.626Z,14.80
2022-12-04T04:48:54.455Z,14.90
2022-12-04T04:51:22.280Z,14.90
2022-12-04T04:53:52.322Z,14.90
2022-12-04T04:56:19.971Z,15.00
2022-12-04T04:58:46.898Z,15.00
2022-12-04T05:01:16.897Z,15.10
2022-12-04T05:03:43.829Z,15.10
2022-12-04T05:06:10.552Z,15.10
2022-12-04T05:08:37.635Z,15.10
2022-12-04T05:11:05.448Z,15.00
2022-12-04T05:13:32.855Z,15.00
2022-12-04T05:16:08.521Z,15.10
2022-12-04T05:18:35.643Z,15.10
2022-12-04T05:21:07.617Z,15.10
2022-12-04T05:23:34.948Z,15.10
2022-12-04T05:26:04.233Z,15.00
2022-12-04T05:28:31.066Z,15.00
2022-12-04T05:30:59.334Z,15.00
2022-12-04T05:33:26.082Z,15.00
2022-12-04T05:36:11.763Z,15.00
2022-12-04T05:38:38.538Z,15.00
2022-12-04T05:41:06.572Z,15.00
2022-12-04T05:43:34.017Z,15.00
2022-12-04T05:46:05.275Z,15.00
2022-12-04T05:48:32.339Z,15.00
2022-12-04T05:50:59.261Z,15.00
2022-12-04T05:53:25.998Z,15.00
2022-12-04T05:55:57.564Z,14.90
2022-12-04T05:58:24.966Z,14.90
2022-12-04T06:00:52.948Z,14.90
2022-12-04T06:03:19.967Z,14.90
2022-12-04T06:05:46.678Z,14.90
2022-12-04T06:08:15.783Z,14.80
2022-12-04T06:10:42.679Z,14.80
2022-12-04T06:13:09.333Z,14.80
2022-12-04T06:15:40.560Z,14.80
2022-12-04T06:18:07.964Z,14.90
2022-12-04T06:20:35.169Z,14.80
2022-12-04T06:23:02.007Z,14.80
2022-12-04T06:25:29.056Z,14.80
2022-12-04T06:27:55.910Z,14.80
2022-12-04T06:30:22.798Z,14.80
2022-12-04T06:32:49.514Z,14.80
2022-12-04T06:35:16.351Z,14.80
2022-12-04T06:37:43.177Z,14.80
2022-12-04T06:40:10.418Z,14.80
2022-12-04T06:42:37.147Z,14.80
2022-12-04T06:45:04.231Z,14.80
2022-12-04T06:47:30.892Z,14.80
2022-12-04T06:49:58.012Z,14.80
2022-12-04T06:52:25.004Z,14.80
2022-12-04T06:54:51.706Z,14.80
2022-12-04T06:57:18.366Z,14.80
2022-12-04T06:59:45.097Z,14.80
2022-12-04T07:02:11.899Z,14.80
2022-12-04T07:04:38.707Z,14.80
2022-12-04T07:07:09.864Z,14.80
2022-12-04T07:09:36.860Z,14.90
2022-12-04T07:12:03.761Z,14.90
2022-12-04T07:14:30.463Z,14.90
2022-12-04T07:16:57.219Z,15.00
2022-12-04T07:19:24.271Z,15.00
2022-12-04T07:21:52.009Z,14.90
2022-12-04T07:24:18.844Z,14.90
2022-12-04T07:26:46.165Z,14.90
2022-12-04T07:29:13.418Z,14.80
2022-12-04T07:31:40.233Z,14.80
2022-12-04T07:34:07.994Z,14.90
2022-12-04T07:36:34.729Z,14.90
2022-12-04T07:39:01.428Z,14.90
2022-12-04T07:41:28.140Z,14.90
2022-12-04T07:43:54.891Z,14.90
2022-12-04T07:46:26.390Z,15.00
2022-12-04T07:48:56.658Z,15.00
2022-12-04T07:51:25.794Z,15.00
2022-12-04T07:53:53.489Z,15.00
2022-12-04T07:56:21.042Z,14.90
2022-12-04T07:58:48.169Z,14.70
2022-12-04T08:01:21.924Z,14.60
2022-12-04T08:03:50.680Z,14.60
2022-12-04T08:06:20.359Z,14.40
2022-12-04T08:08:47.570Z,14.20
2022-12-04T08:11:17.032Z,13.90
2022-12-04T08:13:44.156Z,13.60
2022-12-04T08:16:12.735Z,13.30
2022-12-04T08:20:08.046Z,12.90
2022-12-04T08:22:35.744Z,12.80
2022-12-04T08:25:02.561Z,12.80
2022-12-04T08:27:29.372Z,12.90
2022-12-04T08:34:55.635Z,13.10
2022-12-04T08:37:22.892Z,13.30
2022-12-04T08:39:49.692Z,13.40
2022-12-04T08:42:16.445Z,13.50
2022-12-04T08:44:43.139Z,13.60
2022-12-04T08:47:09.954Z,13.70
2022-12-04T08:49:36.744Z,13.80
2022-12-04T08:52:03.605Z,13.90
2022-12-04T08:54:34.562Z,13.90
2022-12-04T08:57:03.648Z,14.00
2022-12-04T08:59:30.392Z,14.00
2022-12-04T09:01:57.170Z,14.10
2022-12-04T09:04:23.978Z,14.10
2022-12-04T09:06:51.738Z,14.10
2022-12-04T09:09:18.495Z,14.20
2022-12-04T09:11:46.127Z,14.20
2022-12-04T09:14:13.210Z,14.30
2022-12-04T09:16:39.962Z,14.30
2022-12-04T09:19:06.647Z,14.40
2022-12-04T09:21:33.315Z,14.40
2022-12-04T09:24:00.412Z,14.40
2022-12-04T09:26:29.743Z,14.50
2022-12-04T09:28:59.270Z,14.40
2022-12-04T09:31:26.153Z,14.40
2022-12-04T09:33:53.098Z,14.30
2022-12-04T09:36:20.253Z,14.20
2022-12-04T09:38:49.465Z,14.20
2022-12-04T09:41:28.537Z,14.20
2022-12-04T09:44:10.253Z,14.20
2022-12-04T09:47:01.988Z,14.20
2022-12-04T09:50:13.995Z,14.20
2022-12-04T09:52:52.162Z,14.20
2022-12-04T09:55:50.083Z,14.20
2022-12-04T09:58:39.158Z,14.30
2022-12-04T10:01:06.650Z,14.40
2022-12-04T10:03:34.053Z,14.40
2022-12-04T10:06:22.429Z,14.40
2022-12-04T10:09:16.948Z,14.30
2022-12-04T10:11:51.573Z,14.30
2022-12-04T10:14:32.143Z,14.20
2022-12-04T10:17:32.874Z,14.20
2022-12-04T10:20:28.266Z,14.10
2022-12-04T10:23:13.696Z,14.00
2022-12-04T10:25:42.154Z,13.90
2022-12-04T10:28:32.102Z,13.90
2022-12-04T10:31:02.221Z,13.90
2022-12-04T10:33:35.442Z,14.00
2022-12-04T10:36:02.953Z,14.00
2022-12-04T10:38:51.263Z,14.00
2022-12-04T10:41:45.674Z,13.90
2022-12-04T10:44:17.275Z,13.90
2022-12-04T10:46:46.296Z,13.80
2022-12-04T10:49:23.959Z,13.80
2022-12-04T10:51:50.851Z,13.80
2022-12-04T10:54:26.164Z,13.90
2022-12-04T10:57:02.131Z,13.90
2022-12-04T10:59:29.423Z,13.90
2022-12-04T11:02:19.657Z,13.80
2022-12-04T11:04:55.528Z,13.80
2022-12-04T11:07:26.651Z,13.70
2022-12-04T11:10:43.198Z,13.80
2022-12-04T11:13:12.639Z,13.80
2022-12-04T11:15:51.127Z,13.90
2022-12-04T11:18:20.749Z,13.90
2022-12-04T11:21:12.711Z,14.00
2022-12-04T11:23:48.017Z,14.00
2022-12-04T11:26:15.511Z,13.90
2022-12-04T11:28:52.322Z,13.90
2022-12-04T11:31:21.961Z,13.80
2022-12-04T11:33:55.013Z,13.90
2022-12-04T11:36:34.265Z,13.90
2022-12-04T11:39:18.378Z,13.80
2022-12-04T11:41:45.396Z,13.80
2022-12-04T11:44:28.993Z,13.80
2022-12-04T11:47:00.170Z,13.80
2022-12-04T11:49:27.284Z,13.80
2022-12-04T11:52:00.025Z,13.80
2022-12-04T11:54:55.390Z,13.80
2022-12-04T11:57:47.504Z,13.90
2022-12-04T12:00:20.311Z,14.00
2022-12-04T12:03:10.138Z,14.00
2022-12-04T12:06:12.223Z,14.00
2022-12-04T12:09:01.595Z,14.00
2022-12-04T12:11:51.835Z,14.10
2022-12-04T12:14:19.134Z,14.20
2022-12-04T12:17:11.273Z,14.20
2022-12-04T12:19:49.951Z,14.20
2022-12-04T12:22:21.727Z,14.30
2022-12-04T12:25:40.076Z,14.30
2022-12-04T12:28:34.797Z,14.30
2022-12-04T12:31:19.534Z,14.30
2022-12-04T12:33:51.928Z,14.30
2022-12-04T12:36:21.755Z,14.30
2022-12-04T12:38:56.199Z,14.30
2022-12-04T12:41:37.277Z,14.30
2022-12-04T12:44:23.079Z,14.40
2022-12-04T12:46:58.300Z,14.30
2022-12-04T12:49:47.650Z,14.40
2022-12-04T12:52:34.188Z,14.40
2022-12-04T12:55:14.382Z,14.40
2022-12-04T12:57:49.697Z,14.40
2022-12-04T13:00:21.444Z,14.40
2022-12-04T13:03:03.628Z,14.40
2022-12-04T13:05:48.830Z,14.40
2022-12-04T13:08:27.768Z,14.30
2022-12-04T13:11:21.063Z,14.30
2022-12-04T13:13:58.520Z,14.40
2022-12-04T13:16:38.402Z,14.40
2022-12-04T13:19:11.206Z,14.40
2022-12-04T13:21:45.278Z,14.30
2022-12-04T13:24:49.838Z,14.30
2022-12-04T13:27:58.762Z,14.40
2022-12-04T13:30:33.875Z,14.40
2022-12-04T13:33:34.204Z,14.40
2022-12-04T13:36:45.503Z,14.40
2022-12-04T13:39:49.672Z,14.30
2022-12-04T13:42:27.483Z,14.40
2022-12-04T13:44:59.802Z,14.30
2022-12-04T13:47:35.343Z,14.30
2022-12-04T13:50:20.470Z,14.30
2022-12-04T13:52:49.297Z,14.30
2022-12-04T13:55:37.934Z,14.30
2022-12-04T13:58:10.490Z,14.30
2022-12-04T14:00:41.775Z,14.40
2022-12-04T14:03:33.190Z,14.40
2022-12-04T14:06:05.306Z,14.40
2022-12-04T14:08:56.643Z,14.40
2022-12-04T14:11:24.478Z,14.40
2022-12-04T14:13:54.504Z,14.40
2022-12-04T14:16:30.462Z,14.40
2022-12-04T14:19:00.028Z,14.40
2022-12-04T14:21:40.659Z,14.40
2022-12-04T14:24:37.394Z,14.30
2022-12-04T14:27:33.981Z,14.40
2022-12-04T14:30:02.181Z,14.40
2022-12-04T14:32:33.622Z,14.50
2022-12-04T14:35:01.237Z,14.50
2022-12-04T14:37:44.817Z,14.60
2022-12-04T14:40:45.253Z,14.60
2022-12-04T14:43:21.899Z,14.60
2022-12-04T14:45:48.640Z,14.60
2022-12-04T14:48:30.255Z,14.60
2022-12-04T14:51:27.868Z,14.60
2022-12-04T14:54:19.748Z,14.50
2022-12-04T14:57:00.484Z,14.50
2022-12-04T14:59:48.472Z,14.50
2022-12-04T15:02:28.576Z,14.50
2022-12-04T15:04:56.514Z,14.50
2022-12-04T15:07:30.283Z,14.60
2022-12-04T15:10:18.092Z,14.50
2022-12-04T15:12:51.787Z,14.50
2022-12-04T15:15:25.582Z,14.50
2022-12-04T15:17:59.166Z,14.50
2022-12-04T15:20:28.418Z,14.50
2022-12-04T15:22:58.755Z,14.60
2022-12-04T15:25:29.406Z,14.60
2022-12-04T15:28:06.940Z,14.60
2022-12-04T15:30:36.727Z,14.60
2022-12-04T15:33:04.967Z,14.60
2022-12-04T15:35:33.900Z,14.60
2022-12-04T15:38:01.072Z,14.50
2022-12-04T15:40:29.925Z,14.60
2022-12-04T15:43:14.661Z,14.60
2022-12-04T15:45:41.700Z,14.60
2022-12-04T15:48:09.639Z,14.60
2022-12-04T15:50:36.636Z,14.70
2022-12-04T15:53:16.800Z,14.70
2022-12-04T15:55:53.058Z,14.70
2022-12-04T15:58:40.316Z,14.70
2022-12-04T16:01:15.492Z,14.70
2022-12-04T16:03:42.319Z,14.70
2022-12-04T16:06:17.841Z,14.80
2022-12-04T16:08:59.115Z,14.80
2022-12-04T16:11:35.784Z,14.70
2022-12-04T16:14:12.367Z,14.80
2022-12-04T16:16:42.274Z,14.80
2022-12-04T16:19:16.498Z,14.80
2022-12-04T16:21:45.624Z,14.80
2022-12-04T16:24:14.070Z,14.80
2022-12-04T16:26:41.729Z,14.80
2022-12-04T16:29:08.634Z,14.90
2022-12-04T16:31:37.888Z,14.90
2022-12-04T16:34:04.772Z,14.80
2022-12-04T16:36:31.502Z,14.90
2022-12-04T16:38:58.314Z,14.90
2022-12-04T16:41:25.162Z,14.90
2022-12-04T16:43:58.579Z,14.90
2022-12-04T16:46:27.443Z,14.90
2022-12-04T16:48:54.753Z,14.80
2022-12-04T16:51:24.789Z,14.90
2022-12-04T16:53:53.540Z,14.90
2022-12-04T16:56:20.702Z,15.00
2022-12-04T16:58:47.954Z,15.00
2022-12-04T17:01:22.412Z,14.90
2022-12-04T17:03:49.937Z,14.90
2022-12-04T17:06:17.030Z,14.90
2022-12-04T17:08:44.398Z,14.90
2022-12-04T17:11:16.166Z,14.90
2022-12-04T17:13:43.240Z,14.90
2022-12-04T17:16:14.592Z,15.00
2022-12-04T17:18:42.303Z,15.00
2022-12-04T17:21:10.883Z,15.00
2022-12-04T17:23:37.973Z,14.90
2022-12-04T17:26:07.505Z,14.90
2022-12-04T17:28:36.343Z,14.90
2022-12-04T17:31:06.183Z,14.90
2022-12-04T17:33:33.434Z,14.80
2022-12-04T17:36:03.473Z,14.80
2022-12-04T17:38:30.264Z,14.80
2022-12-04T17:41:02.023Z,14.80
2022-12-04T17:43:29.738Z,14.80
2022-12-04T17:45:57.096Z,14.80
2022-12-04T17:48:24.860Z,14.80
2022-12-04T17:51:15.663Z,14.80
2022-12-04T17:53:42.672Z,14.80
2022-12-04T17:56:18.869Z,14.80
2022-12-04T17:58:46.389Z,14.90
2022-12-04T18:01:22.267Z,14.90
2022-12-04T18:03:54.203Z,14.90
2022-12-04T18:06:30.265Z,14.90
2022-12-04T18:08:57.458Z,14.90
2022-12-04T18:11:27.006Z,14.90
2022-12-04T18:13:56.248Z,14.90
2022-12-04T18:16:23.726Z,14.90
2022-12-04T18:18:53.270Z,14.90
2022-12-04T18:21:20.030Z,14.90
2022-12-04T18:23:47.163Z,14.90
2022-12-04T18:26:16.982Z,14.90
2022-12-04T18:28:44.901Z,15.00
2022-12-04T18:31:13.028Z,14.90
2022-12-04T18:33:41.162Z,14.90
2022-12-04T18:36:11.914Z,14.90
2022-12-04T18:38:38.953Z,14.90
2022-12-04T18:41:08.598Z,14.90
2022-12-04T18:43:36.952Z,14.90
2022-12-04T18:46:07.890Z,14.90
2022-12-04T18:48:36.147Z,14.90
2022-12-04T18:51:13.097Z,14.80
2022-12-04T18:53:39.787Z,14.70
2022-12-04T18:56:07.356Z,14.70
2022-12-04T18:58:34.173Z,14.60
2022-12-04T19:01:12.578Z,14.60
2022-12-04T19:03:39.684Z,14.60
2022-12-04T19:06:07.087Z,14.60
2022-12-04T19:08:37.631Z,14.60
2022-12-04T19:11:11.603Z,14.60
2022-12-04T19:13:38.756Z,14.60
2022-12-04T19:16:10.386Z,14.60
2022-12-04T19:18:37.130Z,14.50
2022-12-04T19:21:06.591Z,14.50
2022-12-04T19:23:33.318Z,14.40
2022-12-04T19:26:01.282Z,14.40
2022-12-04T19:28:28.554Z,14.30
2022-12-04T19:30:56.405Z,14.30
2022-12-04T19:33:24.769Z,14.30
2022-12-04T19:36:00.883Z,14.30
2022-12-04T19:38:28.779Z,14.20
2022-12-04T19:41:15.936Z,14.10
2022-12-04T19:43:45.009Z,14.00
2022-12-04T19:46:14.072Z,13.90
2022-12-04T19:48:41.491Z,13.90
2022-12-04T19:51:15.148Z,14.00
2022-12-04T19:53:43.147Z,14.00
2022-12-04T19:56:13.544Z,14.00
2022-12-04T19:58:40.707Z,14.00
2022-12-04T20:01:10.350Z,14.00
2022-12-04T20:03:37.270Z,13.90
2022-12-04T20:06:06.672Z,13.90
2022-12-04T20:08:34.578Z,13.90
2022-12-04T20:11:15.670Z,13.90
2022-12-04T20:13:43.525Z,13.90
2022-12-04T20:16:12.379Z,13.90
2022-12-04T20:18:40.296Z,13.90
2022-12-04T20:21:11.123Z,14.00
2022-12-04T20:23:43.806Z,14.10
2022-12-04T20:26:13.086Z,14.10
2022-12-04T20:28:41.041Z,14.10
2022-12-04T20:31:17.586Z,14.10
2022-12-04T20:33:46.908Z,14.10
2022-12-04T20:36:15.327Z,14.00
2022-12-04T20:38:42.657Z,14.10
2022-12-04T20:41:13.654Z,14.10
2022-12-04T20:43:40.335Z,14.10
2022-12-04T20:46:14.289Z,14.10
2022-12-04T20:48:47.943Z,14.10
2022-12-04T20:51:16.015Z,14.10
2022-12-04T20:53:43.275Z,14.20
2022-12-04T20:56:10.155Z,14.10
2022-12-04T20:58:36.829Z,14.20
2022-12-04T21:01:15.632Z,14.20
2022-12-04T21:03:43.209Z,14.20
2022-12-04T21:06:20.110Z,14.10
2022-12-04T21:08:53.515Z,14.10
2022-12-04T21:11:21.491Z,14.20
2022-12-04T21:14:06.793Z,14.20
2022-12-04T21:16:33.684Z,14.10
2022-12-04T21:19:00.809Z,14.00
2022-12-04T21:21:27.900Z,14.00
2022-12-04T21:23:54.668Z,13.90
2022-12-04T21:26:22.197Z,13.80
2022-12-04T21:28:48.949Z,13.80
2022-12-04T21:31:15.764Z,13.80
2022-12-04T21:33:42.532Z,13.60
2022-12-04T21:36:09.950Z,13.50
2022-12-04T21:38:38.782Z,13.30
2022-12-04T21:41:09.023Z,13.10
2022-12-04T21:43:37.087Z,12.90
2022-12-04T21:46:09.661Z,12.70
2022-12-04T21:48:37.174Z,12.50
2022-12-04T21:51:16.818Z,12.50
2022-12-04T21:53:54.806Z,12.30
2022-12-04T21:58:52.567Z,12.20
2022-12-04T22:01:21.915Z,12.00
2022-12-04T22:03:49.056Z,11.90
2022-12-04T22:06:15.894Z,11.80
2022-12-04T22:08:42.589Z,11.70
2022-12-04T22:11:11.254Z,11.70
2022-12-04T22:13:38.716Z,11.70
2022-12-04T22:16:08.344Z,11.60
2022-12-04T22:18:35.186Z,11.50
2022-12-04T22:21:09.362Z,11.40
2022-12-04T22:23:36.464Z,11.30
2022-12-04T22:26:15.422Z,11.30
2022-12-04T22:28:42.470Z,11.20
2022-12-04T22:31:14.577Z,11.20
2022-12-04T22:33:42.150Z,11.20
2022-12-04T22:36:14.888Z,11.10
2022-12-04T22:39:07.764Z,11.10
2022-12-04T22:41:28.914Z,11.10
2022-12-04T22:43:55.680Z,11.00
2022-12-04T22:46:22.421Z,11.00
2022-12-04T22:48:49.127Z,11.00
2022-12-04T22:51:18.765Z,11.00
2022-12-04T22:53:56.860Z,11.00
2022-12-04T22:56:31.551Z,11.00
2022-12-04T22:58:59.150Z,10.90
2022-12-04T23:01:29.053Z,10.90
2022-12-04T23:03:55.853Z,10.90
2022-12-04T23:06:24.397Z,10.90
2022-12-04T23:09:04.821Z,10.90
2022-12-04T23:11:31.517Z,10.90
2022-12-04T23:14:00.786Z,10.90
2022-12-04T23:16:29.974Z,10.90
2022-12-04T23:18:56.819Z,10.90
2022-12-04T23:21:24.452Z,10.80
2022-12-04T23:23:52.745Z,10.90
2022-12-04T23:26:24.807Z,10.80
2022-12-04T23:28:51.537Z,10.80
2022-12-04T23:31:18.620Z,10.80
2022-12-04T23:33:45.376Z,10.80
2022-12-04T23:36:13.353Z,10.80
2022-12-04T23:38:43.579Z,10.70
2022-12-04T23:41:24.294Z,10.70
2022-12-04T23:43:52.291Z,10.70
2022-12-04T23:46:30.961Z,10.70
2022-12-04T23:48:58.460Z,10.70
2022-12-04T23:51:25.619Z,10.70
2022-12-04T23:53:52.509Z,10.70
2022-12-04T23:56:20.572Z,10.60
2022-12-04T23:58:49.901Z,10.60
